createdAt,value
2023-03-02T00:01:42.365Z,38.24
2023-03-02T00:04:08.837Z,38.95
2023-03-02T00:06:35.240Z,38.21
2023-03-02T00:09:01.639Z,38.17
2023-03-02T00:11:28.004Z,39.16
2023-03-02T00:13:54.444Z,38.75
2023-03-02T00:16:20.817Z,38.79
2023-03-02T00:18:47.263Z,39.43
2023-03-02T00:21:13.628Z,39.23
2023-03-02T00:23:40.045Z,39.76
2023-03-02T00:26:06.440Z,40.12
2023-03-02T00:28:32.844Z,39.53
2023-03-02T00:30:59.290Z,39.99
2023-03-02T00:33:25.660Z,38.87
2023-03-02T00:35:52.031Z,39.10
2023-03-02T00:38:18.439Z,38.96
2023-03-02T00:40:52.342Z,38.82
2023-03-02T00:43:18.694Z,38.25
2023-03-02T00:45:45.235Z,38.51
2023-03-02T00:48:11.607Z,37.89
2023-03-02T00:50:38.015Z,38.51
2023-03-02T00:53:04.443Z,38.48
2023-03-02T00:55:30.875Z,38.83
2023-03-02T00:57:57.309Z,38.45
2023-03-02T01:00:23.878Z,39.33
2023-03-02T01:02:50.682Z,38.50
2023-03-02T01:05:36.963Z,38.32
2023-03-02T01:08:03.475Z,37.62
2023-03-02T01:10:29.849Z,38.54
2023-03-02T01:15:36.540Z,39.55
2023-03-02T01:18:02.959Z,39.43
2023-03-02T01:20:29.329Z,39.09
2023-03-02T01:22:55.697Z,39.09
2023-03-02T01:25:22.227Z,39.81
2023-03-02T01:30:29.094Z,40.94
2023-03-02T01:33:02.846Z,40.63
2023-03-02T01:35:29.731Z,40.79
2023-03-02T01:37:56.292Z,40.21
2023-03-02T01:40:22.708Z,39.97
2023-03-02T01:42:49.185Z,39.63
2023-03-02T01:45:15.675Z,40.19
2023-03-02T01:47:42.113Z,40.14
2023-03-02T01:50:08.581Z,39.43
2023-03-02T01:52:34.949Z,39.57
2023-03-02T01:55:01.312Z,39.14
2023-03-02T01:57:27.826Z,39.99
2023-03-02T01:59:54.331Z,39.06
2023-03-02T02:02:20.716Z,39.00
2023-03-02T02:04:47.109Z,39.68
2023-03-02T02:07:13.454Z,40.33
2023-03-02T02:09:39.854Z,39.61
2023-03-02T02:12:06.246Z,40.42
2023-03-02T02:14:32.627Z,40.33
2023-03-02T02:19:49.771Z,40.95
2023-03-02T02:22:16.734Z,40.87
2023-03-02T02:24:43.084Z,41.49
2023-03-02T02:27:10.453Z,41.03
2023-03-02T02:29:36.901Z,41.41
2023-03-02T02:32:03.387Z,40.91
2023-03-02T02:34:29.892Z,39.67
2023-03-02T02:36:56.262Z,40.95
2023-03-02T02:39:22.783Z,41.16
2023-03-02T02:41:49.598Z,41.92
2023-03-02T02:44:15.986Z,42.07
2023-03-02T02:46:42.403Z,42.69
2023-03-02T02:49:08.820Z,41.77
2023-03-02T02:51:35.244Z,41.75
2023-03-02T02:54:01.588Z,41.17
2023-03-02T02:56:27.947Z,42.52
2023-03-02T02:58:54.417Z,42.16
2023-03-02T03:01:23.146Z,42.41
2023-03-02T03:03:49.690Z,42.51
2023-03-02T03:06:17.167Z,42.16
2023-03-02T03:08:43.565Z,42.26
2023-03-02T03:11:10.003Z,41.57
2023-03-02T03:13:36.444Z,40.92
2023-03-02T03:16:04.359Z,42.99
2023-03-02T03:18:30.722Z,42.48
2023-03-02T03:20:57.143Z,43.33
2023-03-02T03:23:23.732Z,42.45
2023-03-02T03:25:50.171Z,42.49
2023-03-02T03:28:16.537Z,42.97
2023-03-02T03:30:42.961Z,41.82
2023-03-02T03:33:09.412Z,42.94
2023-03-02T03:35:35.758Z,42.39
2023-03-02T03:38:02.350Z,42.53
2023-03-02T03:40:29.724Z,42.98
2023-03-02T03:42:59.827Z,41.91
2023-03-02T03:45:30.336Z,42.86
2023-03-02T03:47:57.213Z,42.71
2023-03-02T03:50:23.586Z,43.16
2023-03-02T03:52:49.955Z,42.55
2023-03-02T03:55:16.419Z,41.93
2023-03-02T03:57:43.143Z,43.01
2023-03-02T04:00:09.482Z,43.47
2023-03-02T04:02:35.887Z,42.80
2023-03-02T04:05:02.348Z,43.21
2023-03-02T04:07:31.454Z,42.51
2023-03-02T04:09:57.876Z,44.20
2023-03-02T04:12:24.223Z,42.97
2023-03-02T04:14:50.589Z,42.16
2023-03-02T04:17:17.002Z,42.90
2023-03-02T04:19:53.598Z,42.66
2023-03-02T04:22:19.958Z,43.12
2023-03-02T04:24:46.364Z,44.42
2023-03-02T04:27:12.731Z,44.04
2023-03-02T04:29:39.188Z,43.57
2023-03-02T04:32:05.689Z,41.79
2023-03-02T04:34:32.146Z,44.43
2023-03-02T04:36:58.748Z,43.93
2023-03-02T04:39:25.220Z,43.87
2023-03-02T04:41:53.467Z,44.54
2023-03-02T04:44:19.960Z,45.61
2023-03-02T04:46:46.376Z,44.19
2023-03-02T04:49:12.808Z,43.91
2023-03-02T04:51:39.191Z,44.02
2023-03-02T04:56:45.941Z,44.36
2023-03-02T04:59:12.317Z,44.53
2023-03-02T05:01:38.720Z,43.96
2023-03-02T05:04:06.201Z,42.98
2023-03-02T05:06:38.751Z,43.38
2023-03-02T05:09:05.120Z,43.00
2023-03-02T05:11:31.506Z,43.63
2023-03-02T05:13:57.936Z,43.29
2023-03-02T05:16:24.352Z,43.28
2023-03-02T05:18:57.987Z,43.91
2023-03-02T05:21:24.355Z,43.59
2023-03-02T05:23:50.775Z,44.05
2023-03-02T05:26:17.341Z,44.07
2023-03-02T05:28:43.727Z,42.95
2023-03-02T05:31:10.117Z,43.06
2023-03-02T05:36:19.308Z,43.58
2023-03-02T05:38:46.689Z,44.41
2023-03-02T05:41:17.317Z,45.26
2023-03-02T05:43:49.251Z,46.13
2023-03-02T05:46:15.610Z,46.19
2023-03-02T05:48:42.013Z,44.82
2023-03-02T05:51:08.397Z,44.40
2023-03-02T05:53:34.791Z,44.37
2023-03-02T05:58:42.035Z,45.06
2023-03-02T06:01:08.516Z,43.93
2023-03-02T06:03:34.931Z,44.13
2023-03-02T06:06:01.297Z,43.87
2023-03-02T06:08:27.933Z,43.65
2023-03-02T06:10:54.288Z,44.45
2023-03-02T06:13:20.731Z,44.25
2023-03-02T06:15:47.133Z,44.99
2023-03-02T06:21:04.749Z,44.43
2023-03-02T06:23:31.448Z,44.17
2023-03-02T06:25:57.838Z,44.50
2023-03-02T06:28:24.343Z,44.68
2023-03-02T06:30:50.678Z,45.46
2023-03-02T06:33:17.090Z,43.52
2023-03-02T06:35:44.029Z,43.95
2023-03-02T06:38:13.202Z,45.16
2023-03-02T06:40:39.591Z,44.25
2023-03-02T06:43:06.137Z,42.96
2023-03-02T06:45:32.575Z,42.70
2023-03-02T06:47:59.141Z,43.68
2023-03-02T06:50:25.517Z,43.14
2023-03-02T06:52:51.922Z,43.51
2023-03-02T06:55:18.340Z,44.95
2023-03-02T06:57:44.797Z,43.62
2023-03-02T07:00:11.591Z,42.84
2023-03-02T07:02:38.001Z,42.66
2023-03-02T07:05:04.449Z,42.14
2023-03-02T07:07:31.070Z,42.46
2023-03-02T07:10:00.285Z,43.32
2023-03-02T07:12:26.688Z,43.48
2023-03-02T07:14:53.128Z,42.95
2023-03-02T07:17:19.867Z,43.37
2023-03-02T07:19:46.233Z,42.66
2023-03-02T07:22:12.625Z,43.31
2023-03-02T07:24:44.686Z,42.54
2023-03-02T07:27:11.493Z,42.09
2023-03-02T07:29:38.019Z,43.07
2023-03-02T07:32:06.668Z,43.68
2023-03-02T07:34:33.223Z,42.74
2023-03-02T07:37:13.307Z,42.87
2023-03-02T07:39:49.079Z,44.82
2023-03-02T07:42:15.600Z,43.62
2023-03-02T07:44:42.044Z,43.76
2023-03-02T07:47:08.562Z,43.66
2023-03-02T07:49:35.015Z,44.24
2023-03-02T07:52:01.551Z,44.26
2023-03-02T07:54:27.981Z,43.93
2023-03-02T07:56:54.529Z,43.34
2023-03-02T07:59:20.965Z,44.95
2023-03-02T08:01:47.526Z,43.67
2023-03-02T08:04:14.103Z,44.11
2023-03-02T08:06:44.860Z,44.34
2023-03-02T08:09:11.273Z,44.13
2023-03-02T08:11:37.687Z,44.32
2023-03-02T08:14:04.154Z,44.91
2023-03-02T08:16:30.703Z,44.59
2023-03-02T08:18:59.678Z,43.71
2023-03-02T08:21:26.414Z,44.17
2023-03-02T08:23:52.940Z,43.97
2023-03-02T08:26:19.489Z,44.19
2023-03-02T08:28:45.934Z,43.91
2023-03-02T08:31:12.439Z,43.81
2023-03-02T08:33:38.911Z,43.03
2023-03-02T08:36:05.533Z,43.69
2023-03-02T08:38:31.963Z,44.05
2023-03-02T08:40:58.357Z,44.14
2023-03-02T08:43:24.768Z,44.79
2023-03-02T08:45:51.215Z,45.03
2023-03-02T08:48:17.727Z,45.25
2023-03-02T08:50:44.187Z,44.85
2023-03-02T08:53:10.623Z,44.08
2023-03-02T08:55:37.073Z,44.59
2023-03-02T08:58:03.525Z,46.40
2023-03-02T09:00:31.645Z,44.16
2023-03-02T09:02:58.398Z,44.38
2023-03-02T09:05:24.903Z,44.71
2023-03-02T09:07:51.398Z,45.97
2023-03-02T09:10:17.831Z,44.80
2023-03-02T09:12:44.260Z,45.14
2023-03-02T09:15:10.834Z,45.15
2023-03-02T09:17:37.274Z,44.38
2023-03-02T09:20:03.713Z,45.06
2023-03-02T09:22:30.171Z,44.73
2023-03-02T09:24:56.614Z,44.52
2023-03-02T09:27:23.123Z,44.31
2023-03-02T09:29:49.636Z,43.62
2023-03-02T09:32:16.342Z,42.55
2023-03-02T09:34:42.887Z,43.23
2023-03-02T09:37:09.317Z,43.36
2023-03-02T09:39:35.795Z,42.58
2023-03-02T09:42:02.202Z,43.31
2023-03-02T09:44:29.575Z,43.41
2023-03-02T09:46:55.998Z,43.47
2023-03-02T09:49:22.457Z,42.33
2023-03-02T09:51:48.987Z,42.87
2023-03-02T09:54:15.423Z,42.70
2023-03-02T09:56:41.931Z,42.07
2023-03-02T09:59:10.393Z,42.62
2023-03-02T10:01:36.838Z,43.65
2023-03-02T10:04:03.379Z,42.39
2023-03-02T10:06:30.007Z,43.33
2023-03-02T10:08:56.661Z,42.83
2023-03-02T10:11:23.083Z,41.84
2023-03-02T10:13:49.687Z,42.67
2023-03-02T10:16:16.115Z,43.41
2023-03-02T10:18:42.648Z,42.82
2023-03-02T10:21:09.081Z,43.05
2023-03-02T10:23:35.553Z,42.44
2023-03-02T10:26:02.208Z,43.39
2023-03-02T10:28:28.662Z,41.54
2023-03-02T10:30:55.235Z,41.80
2023-03-02T10:33:21.761Z,42.38
2023-03-02T10:35:48.305Z,41.45
2023-03-02T10:38:14.935Z,42.47
2023-03-02T10:40:41.382Z,43.23
2023-03-02T10:43:07.821Z,43.01
2023-03-02T10:45:38.673Z,42.87
2023-03-02T10:48:05.119Z,43.18
2023-03-02T10:50:31.699Z,43.01
2023-03-02T10:53:00.625Z,43.34
2023-03-02T10:55:27.986Z,43.70
2023-03-02T10:57:54.374Z,42.45
2023-03-02T11:00:20.854Z,42.17
2023-03-02T11:02:47.347Z,42.25
2023-03-02T11:05:13.755Z,43.08
2023-03-02T11:07:40.197Z,42.71
2023-03-02T11:10:06.675Z,42.89
2023-03-02T11:12:33.196Z,42.76
2023-03-02T11:14:59.798Z,41.86
2023-03-02T11:17:26.303Z,42.56
2023-03-02T11:19:52.797Z,42.73
2023-03-02T11:22:19.288Z,42.02
2023-03-02T11:24:45.884Z,41.77
2023-03-02T11:27:13.893Z,41.71
2023-03-02T11:29:40.405Z,42.09
2023-03-02T11:32:06.878Z,42.33
2023-03-02T11:34:33.261Z,41.50
2023-03-02T11:36:59.798Z,41.96
2023-03-02T11:39:26.451Z,42.16
2023-03-02T11:41:52.866Z,41.57
2023-03-02T11:44:20.521Z,41.45
2023-03-02T11:46:47.085Z,42.03
2023-03-02T11:49:13.515Z,43.01
2023-03-02T11:51:47.144Z,42.31
2023-03-02T11:54:18.800Z,42.59
2023-03-02T11:56:45.298Z,42.74
2023-03-02T11:59:11.915Z,43.50
2023-03-02T12:01:39.835Z,42.02
2023-03-02T12:09:13.281Z,42.12
2023-03-02T12:11:39.820Z,41.63
2023-03-02T12:14:06.240Z,42.27
2023-03-02T12:19:23.061Z,42.11
2023-03-02T12:21:55.092Z,42.26
2023-03-02T12:24:21.629Z,42.47
2023-03-02T12:26:48.490Z,42.44
2023-03-02T12:29:15.087Z,42.96
2023-03-02T12:31:41.531Z,43.10
2023-03-02T12:34:09.386Z,42.78
2023-03-02T12:36:35.813Z,43.38
2023-03-02T12:39:02.327Z,44.56
2023-03-02T12:41:28.757Z,43.28
2023-03-02T12:43:55.381Z,42.52
2023-03-02T12:46:21.936Z,43.33
2023-03-02T12:48:49.256Z,43.51
2023-03-02T12:51:16.131Z,43.03
2023-03-02T12:53:42.634Z,43.14
2023-03-02T12:56:11.880Z,43.56
2023-03-02T12:58:38.362Z,43.41
2023-03-02T13:01:05.003Z,44.01
2023-03-02T13:03:31.786Z,43.28
2023-03-02T13:06:00.909Z,43.66
2023-03-02T13:08:27.369Z,43.01
2023-03-02T13:10:53.804Z,43.83
2023-03-02T13:13:20.329Z,43.18
2023-03-02T13:15:46.786Z,44.11
2023-03-02T13:18:13.179Z,44.32
2023-03-02T13:20:45.698Z,43.09
2023-03-02T13:23:18.200Z,44.67
2023-03-02T13:25:44.655Z,42.68
2023-03-02T13:28:11.118Z,43.41
2023-03-02T13:30:39.793Z,45.18
2023-03-02T13:33:06.329Z,44.48
2023-03-02T13:35:38.042Z,44.83
2023-03-02T13:38:04.634Z,44.02
2023-03-02T13:40:31.285Z,45.54
2023-03-02T13:42:57.784Z,44.71
2023-03-02T13:45:30.384Z,44.83
2023-03-02T13:48:04.085Z,44.11
2023-03-02T13:50:30.606Z,44.57
2023-03-02T13:52:59.129Z,44.84
2023-03-02T13:55:27.793Z,44.40
2023-03-02T13:58:19.409Z,44.75
2023-03-02T14:00:47.518Z,45.35
2023-03-02T14:03:24.458Z,44.15
2023-03-02T14:05:51.024Z,44.79
2023-03-02T14:08:17.495Z,45.38
2023-03-02T14:10:43.950Z,46.16
2023-03-02T14:13:10.848Z,45.74
2023-03-02T14:15:37.380Z,44.83
2023-03-02T14:18:05.219Z,45.41
2023-03-02T14:20:31.693Z,44.97
2023-03-02T14:22:58.167Z,45.11
2023-03-02T14:25:27.113Z,44.99
2023-03-02T14:27:53.620Z,45.08
2023-03-02T14:30:20.089Z,44.38
2023-03-02T14:32:46.665Z,44.11
2023-03-02T14:35:13.127Z,45.35
2023-03-02T14:37:39.687Z,45.49
2023-03-02T14:40:06.596Z,44.01
2023-03-02T14:42:32.971Z,44.53
2023-03-02T14:45:00.009Z,45.37
2023-03-02T14:47:27.762Z,44.91
2023-03-02T14:55:32.088Z,45.21
2023-03-02T14:57:58.849Z,44.97
2023-03-02T15:00:25.405Z,45.51
2023-03-02T15:02:51.978Z,44.14
2023-03-02T15:05:18.611Z,43.38
2023-03-02T15:07:45.028Z,44.20
2023-03-02T15:10:14.089Z,44.69
2023-03-02T15:12:40.503Z,45.28
2023-03-02T15:15:06.919Z,44.69
2023-03-02T15:17:33.368Z,45.03
2023-03-02T15:19:59.837Z,44.70
2023-03-02T15:22:26.217Z,44.71
2023-03-02T15:24:52.792Z,44.14
2023-03-02T15:27:19.255Z,44.08
2023-03-02T15:29:45.837Z,44.56
2023-03-02T15:32:12.389Z,44.38
2023-03-02T15:34:38.952Z,44.97
2023-03-02T15:37:05.372Z,45.00
2023-03-02T15:39:31.848Z,44.00
2023-03-02T15:41:58.334Z,44.47
2023-03-02T15:44:24.831Z,45.59
2023-03-02T15:46:51.305Z,44.81
2023-03-02T15:49:17.771Z,44.59
2023-03-02T15:51:45.278Z,45.04
2023-03-02T15:54:11.710Z,45.20
2023-03-02T15:56:43.952Z,44.88
2023-03-02T15:59:10.605Z,44.50
2023-03-02T16:01:39.806Z,44.55
2023-03-02T16:04:06.301Z,45.28
2023-03-02T16:06:34.770Z,45.08
2023-03-02T16:09:01.207Z,44.17
2023-03-02T16:11:27.737Z,44.42
2023-03-02T16:13:54.213Z,44.55
2023-03-02T16:16:20.746Z,44.50
2023-03-02T16:18:47.202Z,44.93
2023-03-02T16:21:13.594Z,44.33
2023-03-02T16:23:39.985Z,43.85
2023-03-02T16:26:06.433Z,43.18
2023-03-02T16:28:32.871Z,44.05
2023-03-02T16:30:59.263Z,43.39
2023-03-02T16:33:25.942Z,41.46
2023-03-02T16:35:52.509Z,42.23
2023-03-02T16:38:19.026Z,43.32
2023-03-02T16:40:45.497Z,43.60
2023-03-02T16:43:11.944Z,44.42
2023-03-02T16:45:38.429Z,43.95
2023-03-02T16:48:04.868Z,42.89
2023-03-02T16:50:31.318Z,43.20
2023-03-02T16:52:59.921Z,42.76
2023-03-02T16:55:26.410Z,42.30
2023-03-02T16:57:52.903Z,43.88
2023-03-02T17:00:19.382Z,44.49
2023-03-02T17:02:45.813Z,46.02
2023-03-02T17:05:12.329Z,43.84
2023-03-02T17:07:38.703Z,41.62
2023-03-02T17:10:05.271Z,42.94
2023-03-02T17:12:31.696Z,41.42
2023-03-02T17:14:58.222Z,42.33
2023-03-02T17:17:24.626Z,42.11
2023-03-02T17:19:51.046Z,41.78
2023-03-02T17:22:20.461Z,42.21
2023-03-02T17:24:46.941Z,42.59
2023-03-02T17:27:24.642Z,42.61
2023-03-02T17:29:54.421Z,42.78
2023-03-02T17:32:20.900Z,43.30
2023-03-02T17:34:49.849Z,43.29
2023-03-02T17:37:16.255Z,43.39
2023-03-02T17:39:42.767Z,42.84
2023-03-02T17:42:09.139Z,43.30
2023-03-02T17:44:35.537Z,43.19
2023-03-02T17:47:01.979Z,42.16
2023-03-02T17:49:28.439Z,43.17
2023-03-02T17:51:54.881Z,44.65
2023-03-02T17:54:21.324Z,43.62
2023-03-02T17:56:51.846Z,43.04
2023-03-02T17:59:18.373Z,43.69
2023-03-02T18:01:44.886Z,44.77
2023-03-02T18:04:14.122Z,43.46
2023-03-02T18:06:40.724Z,48.88
2023-03-02T18:09:10.029Z,55.85
2023-03-02T18:11:39.150Z,45.57
2023-03-02T18:14:05.607Z,42.94
2023-03-02T18:16:32.194Z,41.63
2023-03-02T18:18:58.823Z,43.80
2023-03-02T18:21:25.630Z,43.41
2023-03-02T18:23:52.079Z,42.45
2023-03-02T18:26:18.675Z,41.78
2023-03-02T18:28:45.259Z,41.84
2023-03-02T18:31:11.829Z,41.78
2023-03-02T18:33:38.475Z,44.09
2023-03-02T18:36:04.910Z,45.42
2023-03-02T18:38:33.763Z,43.26
2023-03-02T18:41:00.275Z,41.60
2023-03-02T18:43:28.821Z,40.49
2023-03-02T18:45:55.357Z,40.83
2023-03-02T18:48:21.846Z,41.35
2023-03-02T18:50:50.697Z,44.71
2023-03-02T18:53:17.123Z,42.44
2023-03-02T18:55:43.685Z,39.39
2023-03-02T19:46:43.728Z,36.80
2023-03-02T20:02:41.387Z,36.25
2023-03-02T20:21:03.276Z,32.97
2023-03-02T21:47:11.350Z,40.61
2023-03-02T21:49:37.825Z,39.37
2023-03-02T21:52:04.273Z,38.03
2023-03-02T21:54:30.725Z,39.64
2023-03-02T21:56:57.164Z,39.06
2023-03-02T21:59:23.631Z,41.52
2023-03-02T22:01:50.321Z,39.27
2023-03-02T22:04:16.847Z,39.41
2023-03-02T22:06:46.275Z,37.86
2023-03-02T22:09:12.741Z,37.89
2023-03-02T22:11:39.265Z,41.74
2023-03-02T22:14:08.455Z,43.09
2023-03-02T22:16:35.017Z,42.43
2023-03-02T22:19:01.528Z,43.89
2023-03-02T22:21:27.925Z,50.48
2023-03-02T22:23:54.362Z,50.73
2023-03-02T22:26:20.843Z,49.98
2023-03-02T22:28:47.465Z,46.44
2023-03-02T22:31:13.908Z,50.78
2023-03-02T22:33:40.640Z,49.36
2023-03-02T22:36:07.105Z,44.49
2023-03-02T22:38:33.681Z,44.18
2023-03-02T22:41:00.416Z,40.53
2023-03-02T22:43:26.805Z,41.16
2023-03-02T22:45:53.219Z,40.68
2023-03-02T22:48:19.762Z,39.36
2023-03-02T22:50:46.214Z,39.37
2023-03-02T22:53:12.614Z,39.40
2023-03-02T22:55:39.012Z,38.84
2023-03-02T22:58:05.479Z,39.64
2023-03-02T23:00:31.886Z,39.34
2023-03-02T23:03:00.287Z,39.20
2023-03-02T23:05:26.647Z,40.13
2023-03-02T23:07:52.992Z,40.12
2023-03-02T23:10:19.385Z,40.89
2023-03-02T23:12:45.819Z,39.86
2023-03-02T23:15:12.222Z,39.59
2023-03-02T23:17:38.688Z,40.13
2023-03-02T23:20:05.294Z,39.95
2023-03-02T23:22:31.755Z,40.07
2023-03-02T23:24:58.130Z,41.22
2023-03-02T23:27:24.558Z,41.09
2023-03-02T23:29:50.912Z,41.70
2023-03-02T23:32:19.437Z,41.73
2023-03-02T23:34:46.158Z,42.28
2023-03-02T23:37:12.589Z,42.27
2023-03-02T23:39:38.972Z,41.89
2023-03-02T23:42:06.951Z,41.42
2023-03-02T23:44:33.385Z,41.76
2023-03-02T23:46:59.786Z,41.11
2023-03-02T23:49:26.212Z,41.55
2023-03-02T23:51:52.653Z,43.33
2023-03-02T23:54:19.060Z,44.49
2023-03-02T23:56:45.552Z,44.81
2023-03-02T23:59:11.970Z,45.42
